CBV8 weather

Public forecast

Using degrees Celsius for public forecast. Weather courtesy of forecast.io.

Closest aviation weather report (METAR) to Comox (St. Joseph's Hospital) Heliport

Closest report is Comox Airport, 3.0 nm (5.6 km) NE. Retrieved 2020/08/11 01:00 UTC (2 minutes ago):

CYQQ 110100Z 33008KT 20SM FEW040 SCT250 22/12 A3001 RMK CU1CI3 SLP164

Closest aviation forecast (TAF) to Comox (St. Joseph's Hospital) Heliport

Closest forecast is Comox Airport, 3.0 nm (5.6 km) NE. Retrieved 2020-08-11 00:42 UTC (20 minutes ago):

TAF CYQQ 102339Z 1100/1124 34010KT P6SM SKC BECMG 1105/1107 34012G22KT FM111800 36010KT P6SM SCT080 BKN200 BECMG 1122/1124 BKN080 RMK NXT FCST BY 110600Z